Flight Track Log - Related Links

Times and Time Zones

All times are in EDT time to prevent confusion due to time zone crossing. See the ASA472 flight status page for this flight to view local times or setup timezone preferences in your user account.

Time Position Orientation Groundspeed Altitude Reporting Facility
EDT Latitude Longitude Course Direction KTS MPH feet Rate Location/Type
Wed 10:14:01 AM 47.4614 -122.3089 North 166 191 1,200  Level Seattle Center
Wed 10:14:25 AM 47.4814 -122.3081 North 168 193 2,300 1,902 Climbing Seattle Center
Wed 10:14:42 AM 47.4889 -122.3078 North 165 190 2,500 1,846 Climbing Seattle Center
Wed 10:15:43 AM 47.5528 -122.3114 358° North 204 235 4,700 2,164 Climbing Seattle Center
Wed 10:16:44 AM 47.6042 -122.2664 31° Northeast 241 277 6,900 1,770 Climbing Seattle Center
Wed 10:17:45 AM 47.5578 -122.1925 133° Southeast 275 316 8,300 1,082 Climbing Seattle Center
Wed 10:18:46 AM 47.4819 -122.1597 164° South 286 329 9,100 1,230 Climbing Seattle Center
Wed 10:19:47 AM 47.4067 -122.1142 158° South 294 338 10,800 1,884 Climbing Seattle Center
Wed 10:20:47 AM 47.3142 -122.0772 165° South 352 405 12,900 2,380 Climbing Seattle Center
Wed 10:21:48 AM 47.2147 -122.0664 176° South 362 417 15,600 2,508 Climbing Seattle Center
Wed 10:22:49 AM 47.1100 -122.0517 175° South 379 436 18,000 2,311 Climbing Seattle Center
Wed 10:23:50 AM 47.0003 -122.0375 175° South 396 456 20,300 2,066 Climbing Seattle Center
Wed 10:24:51 AM 46.8853 -122.0222 175° South 416 479 22,200 1,918 Climbing Seattle Center
Wed 10:25:52 AM 46.7653 -122.0078 175° South 432 497 24,200 1,835 Climbing Seattle Center
Wed 10:26:52 AM 46.6411 -121.9919 175° South 448 516 25,900 1,785 Climbing Seattle Center
Wed 10:27:53 AM 46.4933 -122.0556 197° South 469 540 27,800 1,721 Climbing Seattle Center
Wed 10:28:54 AM 46.3714 -122.1114 198° South 466 536 29,400 1,426 Climbing Seattle Center
Wed 10:29:55 AM 46.2358 -122.0864 173° South 486 559 30,700 1,475 Climbing Seattle Center
Wed 10:30:56 AM 46.1047 -122.0617 173° South 485 558 32,400 1,574 Climbing Seattle Center
Wed 10:31:57 AM 45.9725 -122.0308 171° South 484 557 33,900 1,279 Climbing Seattle Center
Wed 10:32:58 AM 45.8378 -121.9972 170° South 487 560 35,000 545 Climbing Seattle Center
Wed 10:33:58 AM 45.7047 -121.9667 171° South 485 558 35,000  Level Seattle Center
Wed 10:34:59 AM 45.5722 -121.9361 171° South 483 556 35,000  Level Seattle Center
Wed 10:36:00 AM 45.4419 -121.9078 171° South 475 547 35,000  Level Seattle Center
Wed 10:37:01 AM 45.3022 -121.8717 170° South 479 551 35,000  Level Seattle Center
Wed 10:38:02 AM 45.1703 -121.8419 171° South 480 552 35,000  Level Seattle Center
Wed 10:39:02 AM 45.0386 -121.8111 171° South 480 552 35,000  Level Seattle Center
Wed 10:40:03 AM 44.9064 -121.7811 171° South 481 554 35,000  Level Seattle Center
Wed 10:41:04 AM 44.7747 -121.7514 171° South 481 554 35,000  Level Seattle Center
Wed 10:42:05 AM 44.6439 -121.7217 171° South 479 551 35,000  Level Seattle Center
Wed 10:43:06 AM 44.5125 -121.6919 171° South 479 551 35,000  Level Seattle Center
Wed 10:44:07 AM 44.3542 -121.6561 171° South 483 556 35,000  Level Seattle Center
Wed 10:45:07 AM 44.2222 -121.6275 171° South 485 558 35,000 248 Level Seattle Center
Wed 10:46:08 AM 44.0900 -121.5958 170° South 486 559 35,500 836 Climbing Seattle Center
Wed 10:47:09 AM 43.9536 -121.5656 171° South 495 570 36,700 738 Climbing Seattle Center
Wed 10:48:10 AM 43.8125 -121.5339 171° South 489 563 37,000 148 Climbing Seattle Center
Wed 10:49:11 AM 43.6797 -121.5022 170° South 484 557 37,000  Level Seattle Center
Wed 10:50:12 AM 43.5469 -121.4725 171° South 482 555 37,000  Level Seattle Center
Wed 10:51:13 AM 43.4133 -121.4428 171° South 483 556 37,000  Level Seattle Center
Wed 10:52:13 AM 43.2814 -121.4136 171° South 480 552 37,000  Level Seattle Center
Wed 10:53:14 AM 43.1492 -121.3847 171° South 478 550 37,000  Level Seattle Center
Wed 10:54:15 AM 43.0167 -121.3556 171° South 478 550 37,000  Level Seattle Center
Wed 10:55:16 AM 42.8842 -121.3247 170° South 479 551 37,000  Level Seattle Center
Wed 10:56:17 AM 42.7508 -121.2964 171° South 482 555 37,000  Level Seattle Center
Wed 10:57:18 AM 42.6169 -121.2678 171° South 484 557 37,000  Level Seattle Center
Wed 10:58:19 AM 42.4839 -121.2367 170° South 483 556 37,000  Level Seattle Center
Wed 10:59:21 AM 42.3528 -121.2089 171° South 476 548 37,000  Level Seattle Center
Wed 11:00:21 AM 42.2192 -121.1800 171° South 480 552 37,000  Level Seattle Center
Wed 11:01:22 AM 42.0869 -121.1492 170° South 478 550 37,000  Level Seattle Center
Wed 11:02:23 AM 41.9542 -121.1214 171° South 478 550 37,000  Level Seattle Center
Wed 11:03:24 AM 41.8231 -121.0928 171° South 477 549 37,000  Level Seattle Center
Wed 11:04:25 AM 41.6925 -121.0636 171° South 474 545 37,000  Level Seattle Center
Wed 11:05:26 AM 41.5622 -121.0361 171° South 472 543 37,000  Level Seattle Center
Wed 11:06:27 AM 41.4050 -121.0019 171° South 475 547 37,000  Level Seattle Center
Wed 11:07:27 AM 41.2744 -120.9758 171° South 474 545 37,000  Level Seattle Center
Wed 11:08:28 AM 41.1447 -120.9472 171° South 471 542 37,000  Level Seattle Center
Wed 11:09:29 AM 41.0139 -120.9211 171° South 474 545 37,000  Level Seattle Center
Wed 11:10:30 AM 40.8858 -120.9086 176° South 463 533 37,000  Level Seattle Center
Wed 11:11:31 AM 40.7569 -120.8983 177° South 463 533 37,000  Level Seattle Center
Wed 11:12:31 AM 40.6164 -120.8856 176° South 466 536 37,000  Level Seattle Center
Wed 11:12:50 AM 40.6017 -120.8842 176° South 465 535 37,000  Level Oakland Center
Wed 11:13:51 AM 40.4611 -120.8608 173° South 467 537 37,000  Level Oakland Center
Wed 11:14:53 AM 40.3331 -120.8347 171° South 466 536 37,000  Level Oakland Center
Wed 11:15:54 AM 40.2061 -120.8103 172° South 462 532 37,000  Level Oakland Center
Wed 11:16:55 AM 40.0778 -120.7856 172° South 463 533 37,000  Level Oakland Center
Wed 11:17:56 AM 39.9244 -120.7572 172° South 464 534 37,000  Level Oakland Center
Wed 11:18:57 AM 39.7986 -120.7325 171° South 457 526 37,000  Level Oakland Center
Wed 11:19:58 AM 39.6725 -120.7081 172° South 457 526 37,000  Level Oakland Center
Wed 11:21:00 AM 39.5469 -120.6822 171° South 456 525 37,000  Level Oakland Center
Wed 11:22:01 AM 39.4217 -120.6597 172° South 454 522 37,000  Level Oakland Center
Wed 11:23:02 AM 39.2972 -120.6364 172° South 452 520 37,000  Level Oakland Center
Wed 11:24:03 AM 39.1708 -120.6131 172° South 454 522 37,000  Level Oakland Center
Wed 11:25:04 AM 39.0453 -120.5875 171° South 454 522 37,000  Level Oakland Center
Wed 11:26:06 AM 38.9217 -120.5644 172° South 448 516 37,000  Level Oakland Center
Wed 11:27:07 AM 38.7981 -120.5417 172° South 446 513 37,000  Level Oakland Center
Wed 11:28:08 AM 38.6750 -120.5192 172° South 445 512 37,000  Level Oakland Center
Wed 11:29:09 AM 38.5517 -120.4961 172° South 445 512 37,000  Level Oakland Center
Wed 11:30:10 AM 38.4281 -120.4725 171° South 446 513 37,000  Level Oakland Center
Wed 11:31:11 AM 38.3047 -120.4492 172° South 446 513 37,000  Level Oakland Center
Wed 11:32:13 AM 38.1803 -120.4264 172° South 448 516 37,000  Level Oakland Center
Wed 11:33:14 AM 38.0311 -120.3992 172° South 449 517 37,000  Level Oakland Center
Wed 11:34:15 AM 37.9064 -120.3767 172° South 451 519 37,000  Level Oakland Center
Wed 11:35:16 AM 37.7836 -120.3542 172° South 444 511 37,000  Level Oakland Center
Wed 11:36:18 AM 37.6611 -120.3300 171° South 445 512 37,000  Level Oakland Center
Wed 11:37:19 AM 37.5389 -120.3067 171° South 443 510 37,000  Level Oakland Center
Wed 11:38:20 AM 37.4158 -120.2864 173° South 445 512 37,000  Level Oakland Center
Wed 11:39:21 AM 37.2933 -120.2636 172° South 445 512 37,000  Level Oakland Center
Wed 11:40:23 AM 37.1611 -120.2464 174° South 462 532 37,000  Level Oakland Center
Wed 11:41:24 AM 37.0336 -120.2236 172° South 459 528 37,000  Level Oakland Center
Wed 11:42:25 AM 36.9067 -120.1942 169° South 463 533 37,000 -344 Level Oakland Center
Wed 11:43:26 AM 36.7822 -120.1483 164° South 462 532 36,300 -878 Descending Oakland Center
Wed 11:44:28 AM 36.6378 -120.0997 165° South 449 517 35,200 -634 Descending Oakland Center
Wed 11:45:29 AM 36.5144 -120.0578 165° South 459 528 35,000 -98 Descending Oakland Center
Wed 11:46:30 AM 36.3922 -120.0161 165° South 455 524 35,000  Level Oakland Center
Wed 11:47:32 AM 36.2678 -119.9736 165° South 463 533 35,000  Level Oakland Center
Wed 11:48:33 AM 36.1428 -119.9314 165° South 464 534 35,000  Level Oakland Center
Wed 11:49:34 AM 36.0161 -119.8894 165° South 466 536 35,000  Level Oakland Center
Wed 11:50:36 AM 35.8931 -119.8500 165° South 458 527 35,000  Level Oakland Center
Wed 11:51:37 AM 35.7675 -119.8094 165° South 462 532 35,000  Level Oakland Center
Wed 11:52:38 AM 35.6414 -119.7681 165° South 464 534 35,000  Level Oakland Center
Wed 11:53:40 AM 35.5169 -119.7258 165° South 462 532 35,000  Level Oakland Center
Wed 11:54:41 AM 35.3922 -119.6856 165° South 460 529 35,000 -537 Level Oakland Center
Wed 11:55:43 AM 35.2497 -119.6300 162° South 458 527 33,900 -1,171 Descending Los Angeles Center
Wed 11:56:44 AM 35.1444 -119.5461 147° Southeast 452 520 32,600 -1,268 Descending Los Angeles Center
Wed 11:57:46 AM 35.0411 -119.4583 145° Southeast 452 520 31,300 -1,258 Descending Los Angeles Center
Wed 11:58:48 AM 34.9372 -119.3697 145° Southeast 455 524 30,000 -1,742 Descending Los Angeles Center
Wed 11:59:50 AM 34.8319 -119.2797 145° Southeast 459 528 27,700 -2,226 Descending Los Angeles Center
Wed 12:00:52 PM 34.7303 -119.1958 146° Southeast 446 513 25,400 -2,226 Descending Los Angeles Center
Wed 12:01:54 PM 34.6322 -119.1119 145° Southeast 408 470 23,100 -2,226 Descending Los Angeles Center
Wed 12:02:56 PM 34.5400 -119.0333 145° Southeast 382 440 20,800 -2,129 Descending Los Angeles Center
Wed 12:03:58 PM 34.4556 -118.9636 146° Southeast 369 425 18,700 -1,984 Descending Los Angeles Center
Wed 12:05:00 PM 34.3744 -118.8961 146° Southeast 354 407 16,700 -1,984 Descending Los Angeles Center
Wed 12:06:02 PM 34.2861 -118.8550 159° South 345 397 14,600 -2,226 Descending Los Angeles Center
Wed 12:07:04 PM 34.1789 -118.8156 163° South 337 388 12,100 -1,839 Descending Los Angeles Center
Wed 12:08:06 PM 34.0928 -118.7839 163° South 325 374 10,800 -1,016 Descending Los Angeles Center
Wed 12:09:08 PM 34.0356 -118.7258 140° Southeast 277 319 10,000 -387 Descending Los Angeles Center
Wed 12:10:10 PM 34.0267 -118.6256 96° East 278 320 10,000 -726 Level Los Angeles Center
Wed 12:11:12 PM 34.0175 -118.5322 97° East 279 321 8,500 -1,210 Descending Los Angeles Center
Wed 12:12:14 PM 34.0106 -118.4497 96° East 274 315 7,500 -1,161 Descending Los Angeles Center
Wed 12:13:16 PM 34.0158 -118.3619 86° East 264 304 6,100 -1,548 Descending Los Angeles Center
Wed 12:14:18 PM 34.0222 -118.2586 86° East 258 297 4,300 -1,113 Descending Los Angeles Center
Wed 12:15:20 PM 34.0125 -118.1814 99° East 252 290 3,800 -532 Descending Los Angeles Center
Wed 12:16:22 PM 33.9722 -118.2086 209° Southwest 209 241 3,200 -774 Descending Los Angeles Center
Wed 12:17:24 PM 33.9656 -118.2750 263° West 201 231 2,200 -968 Descending Los Angeles Center
Wed 12:18:26 PM 33.9589 -118.3350 262° West 193 222 1,200 -968 Descending Los Angeles Center
Wed 12:19:28 PM 33.9533 -118.3958 264° West 167 192 200 -968 Descending Los Angeles Center
Wed 12:21:00 PM 33.9333 -118.4000 228° Southwest  Level FlightAware Approximate

Login

Don't have an account? Register now (free) for customized features, flight alerts, and more!